createdAt,value
2018-04-29T00:00:03.968Z,1004.61
2018-04-29T00:01:03.949Z,1004.61
2018-04-29T00:02:03.931Z,1004.63
2018-04-29T00:03:03.915Z,1004.60
2018-04-29T00:04:03.892Z,1004.62
2018-04-29T00:05:03.873Z,1004.58
2018-04-29T00:06:03.866Z,1004.63
2018-04-29T00:07:03.839Z,1004.66
2018-04-29T00:08:03.819Z,1004.62
2018-04-29T00:09:03.804Z,1004.63
2018-04-29T00:10:03.785Z,1004.64
2018-04-29T00:11:03.761Z,1004.61
2018-04-29T00:12:03.754Z,1004.60
2018-04-29T00:13:03.725Z,1004.64
2018-04-29T00:14:03.709Z,1004.61
2018-04-29T00:15:03.689Z,1004.62
2018-04-29T00:16:03.674Z,1004.64
2018-04-29T00:17:03.655Z,1004.59
2018-04-29T00:18:03.636Z,1004.61
2018-04-29T00:19:03.613Z,1004.61
2018-04-29T00:20:03.596Z,1004.62
2018-04-29T00:21:03.584Z,1004.63
2018-04-29T00:22:03.575Z,1004.63
2018-04-29T00:23:03.540Z,1004.61
2018-04-29T00:24:03.523Z,1004.61
2018-04-29T00:25:03.501Z,1004.63
2018-04-29T00:26:03.490Z,1004.66
2018-04-29T00:27:03.465Z,1004.71
2018-04-29T00:28:03.445Z,1004.67
2018-04-29T00:29:03.426Z,1004.65
2018-04-29T00:30:03.417Z,1004.66
2018-04-29T00:31:03.393Z,1004.70
2018-04-29T00:32:03.376Z,1004.71
2018-04-29T00:33:03.355Z,1004.69
2018-04-29T00:34:03.336Z,1004.66
2018-04-29T00:35:03.316Z,1004.63
2018-04-29T00:36:03.300Z,1004.65
2018-04-29T00:37:03.281Z,1004.65
2018-04-29T00:38:03.264Z,1004.60
2018-04-29T00:39:03.243Z,1004.58
2018-04-29T00:40:03.222Z,1004.61
2018-04-29T00:41:03.208Z,1004.60
2018-04-29T00:42:03.189Z,1004.60
2018-04-29T00:43:03.167Z,1004.62
2018-04-29T00:44:03.151Z,1004.59
2018-04-29T00:45:03.132Z,1004.62
2018-04-29T00:46:03.110Z,1004.60
2018-04-29T00:47:03.093Z,1004.57
2018-04-29T00:48:03.073Z,1004.52
2018-04-29T00:49:03.055Z,1004.50
2018-04-29T00:50:03.048Z,1004.47
2018-04-29T00:51:03.019Z,1004.43
2018-04-29T00:52:03.001Z,1004.47
2018-04-29T00:53:02.981Z,1004.45
2018-04-29T00:54:02.968Z,1004.44
2018-04-29T00:55:02.945Z,1004.46
2018-04-29T00:56:02.923Z,1004.48
2018-04-29T00:57:02.934Z,1004.47
2018-04-29T00:58:02.886Z,1004.53
2018-04-29T00:59:02.926Z,1004.49
2018-04-29T01:00:02.871Z,1004.52
2018-04-29T01:01:02.864Z,1004.52
2018-04-29T01:02:02.821Z,1004.53
2018-04-29T01:03:02.801Z,1004.49
2018-04-29T01:04:02.772Z,1004.46
2018-04-29T01:05:02.753Z,1004.51
2018-04-29T01:06:02.752Z,1004.49
2018-04-29T01:07:02.714Z,1004.50
2018-04-29T01:08:02.695Z,1004.48
2018-04-29T01:09:02.686Z,1004.45
2018-04-29T01:10:02.663Z,1004.42
2018-04-29T01:11:02.641Z,1004.41
2018-04-29T01:12:02.624Z,1004.43
2018-04-29T01:13:02.605Z,1004.39
2018-04-29T01:14:02.585Z,1004.42
2018-04-29T01:15:02.565Z,1004.42
2018-04-29T01:16:02.573Z,1004.42
2018-04-29T01:17:02.529Z,1004.40
2018-04-29T01:18:02.510Z,1004.38
2018-04-29T01:19:02.489Z,1004.36
2018-04-29T01:20:02.471Z,1004.38
2018-04-29T01:21:02.454Z,1004.43
2018-04-29T01:22:02.456Z,1004.42
2018-04-29T01:23:02.415Z,1004.41
2018-04-29T01:24:02.395Z,1004.40
2018-04-29T01:25:02.381Z,1004.41
2018-04-29T01:26:02.356Z,1004.38
2018-04-29T01:27:02.338Z,1004.38
2018-04-29T01:28:02.318Z,1004.36
2018-04-29T01:29:02.303Z,1004.34
2018-04-29T01:30:02.313Z,1004.31
2018-04-29T01:31:02.269Z,1004.30
2018-04-29T01:32:02.243Z,1004.33
2018-04-29T01:33:02.228Z,1004.31
2018-04-29T01:34:02.206Z,1004.37
2018-04-29T01:35:02.185Z,1004.37
2018-04-29T01:36:02.166Z,1004.40
2018-04-29T01:37:02.150Z,1004.45
2018-04-29T01:38:02.128Z,1004.45
2018-04-29T01:39:02.109Z,1004.47
2018-04-29T01:40:02.089Z,1004.47
2018-04-29T01:41:02.071Z,1004.51
2018-04-29T01:42:02.052Z,1004.51
2018-04-29T01:43:02.043Z,1004.52
2018-04-29T01:44:02.015Z,1004.56
2018-04-29T01:45:01.994Z,1004.57
2018-04-29T01:46:01.976Z,1004.51
2018-04-29T01:47:01.958Z,1004.52
2018-04-29T01:48:01.941Z,1004.50
2018-04-29T01:49:01.917Z,1004.47
2018-04-29T01:50:01.903Z,1004.47
2018-04-29T01:51:01.881Z,1004.45
2018-04-29T01:52:01.865Z,1004.51
2018-04-29T01:53:01.841Z,1004.46
2018-04-29T01:54:01.830Z,1004.46
2018-04-29T01:55:01.804Z,1004.46
2018-04-29T01:56:01.789Z,1004.45
2018-04-29T01:57:01.774Z,1004.46
2018-04-29T01:58:01.747Z,1004.43
2018-04-29T01:59:01.726Z,1004.37
2018-04-29T02:00:01.712Z,1004.33
2018-04-29T02:01:01.689Z,1004.29
2018-04-29T02:02:01.669Z,1004.26
2018-04-29T02:03:01.649Z,1004.34
2018-04-29T02:04:01.631Z,1004.32
2018-04-29T02:05:01.613Z,1004.29
2018-04-29T02:06:01.595Z,1004.27
2018-04-29T02:07:01.579Z,1004.26
2018-04-29T02:08:01.554Z,1004.25
2018-04-29T02:09:01.538Z,1004.24
2018-04-29T02:10:01.515Z,1004.24
2018-04-29T02:11:01.507Z,1004.22
2018-04-29T02:12:01.477Z,1004.29
2018-04-29T02:13:01.465Z,1004.27
2018-04-29T02:14:01.438Z,1004.27
2018-04-29T02:15:01.417Z,1004.25
2018-04-29T02:16:01.399Z,1004.28
2018-04-29T02:17:01.381Z,1004.29
2018-04-29T02:18:01.360Z,1004.32
2018-04-29T02:19:01.344Z,1004.30
2018-04-29T02:20:01.322Z,1004.33
2018-04-29T02:21:01.301Z,1004.30
2018-04-29T02:22:01.283Z,1004.31
2018-04-29T02:23:01.267Z,1004.28
2018-04-29T02:24:01.268Z,1004.31
2018-04-29T02:25:01.226Z,1004.29
2018-04-29T02:26:01.203Z,1004.27
2018-04-29T02:27:01.193Z,1004.26
2018-04-29T02:28:01.174Z,1004.22
2018-04-29T02:29:01.148Z,1004.25
2018-04-29T02:30:01.126Z,1004.22
2018-04-29T02:31:01.107Z,1004.25
2018-04-29T02:32:01.086Z,1004.24
2018-04-29T02:33:01.072Z,1004.22
2018-04-29T02:34:01.048Z,1004.17
2018-04-29T02:35:01.044Z,1004.14
2018-04-29T02:36:01.013Z,1004.09
2018-04-29T02:37:00.989Z,1004.04
2018-04-29T02:38:00.983Z,1004.04
2018-04-29T02:39:00.953Z,1003.98
2018-04-29T02:40:00.932Z,1003.97
2018-04-29T02:41:00.912Z,1003.98
2018-04-29T02:42:00.895Z,1003.95
2018-04-29T02:43:00.870Z,1003.91
2018-04-29T02:44:00.854Z,1003.93
2018-04-29T02:45:00.864Z,1003.93
2018-04-29T02:46:00.836Z,1003.92
2018-04-29T02:47:00.796Z,1003.93
2018-04-29T02:48:00.793Z,1003.92
2018-04-29T02:49:00.757Z,1003.96
2018-04-29T02:50:00.734Z,1004.03
2018-04-29T02:51:00.717Z,1004.00
2018-04-29T02:52:00.695Z,1003.97
2018-04-29T02:53:00.673Z,1003.94
2018-04-29T02:54:00.661Z,1003.91
2018-04-29T02:55:00.632Z,1003.89
2018-04-29T02:56:00.613Z,1003.93
2018-04-29T02:57:00.596Z,1003.89
2018-04-29T02:58:00.572Z,1003.92
2018-04-29T02:59:00.555Z,1003.88
2018-04-29T03:00:00.535Z,1003.91
2018-04-29T03:01:00.533Z,1003.86
2018-04-29T03:02:00.494Z,1003.80
2018-04-29T03:03:00.475Z,1003.75
2018-04-29T03:04:00.458Z,1003.66
2018-04-29T03:05:00.436Z,1003.67
2018-04-29T03:06:00.418Z,1003.64
2018-04-29T03:07:00.417Z,1003.69
2018-04-29T03:08:00.410Z,1003.69
2018-04-29T03:09:00.355Z,1003.74
2018-04-29T03:10:00.352Z,1003.71
2018-04-29T03:11:00.317Z,1003.73
2018-04-29T03:12:00.296Z,1003.73
2018-04-29T03:13:00.275Z,1003.73
2018-04-29T03:14:00.253Z,1003.73
2018-04-29T03:15:00.235Z,1003.72
2018-04-29T03:16:00.240Z,1003.72
2018-04-29T03:17:00.205Z,1003.71
2018-04-29T03:18:00.176Z,1003.68
2018-04-29T03:19:00.157Z,1003.66
2018-04-29T03:20:00.135Z,1003.70
2018-04-29T03:21:00.112Z,1003.70
2018-04-29T03:22:00.093Z,1003.69
2018-04-29T03:23:00.075Z,1003.68
2018-04-29T03:24:00.053Z,1003.67
2018-04-29T03:25:00.034Z,1003.69
2018-04-29T03:26:00.025Z,1003.70
2018-04-29T03:26:59.993Z,1003.69
2018-04-29T03:27:59.977Z,1003.72
2018-04-29T03:28:59.953Z,1003.73
2018-04-29T03:29:59.942Z,1003.71
2018-04-29T03:30:59.913Z,1003.73
2018-04-29T03:31:59.894Z,1003.75
2018-04-29T03:32:59.875Z,1003.73
2018-04-29T03:33:59.851Z,1003.72
2018-04-29T03:34:59.844Z,1003.79
2018-04-29T03:35:59.814Z,1003.77
2018-04-29T03:36:59.792Z,1003.78
2018-04-29T03:37:59.774Z,1003.78
2018-04-29T03:38:59.756Z,1003.77
2018-04-29T03:39:59.729Z,1003.78
2018-04-29T03:40:59.710Z,1003.72
2018-04-29T03:41:59.689Z,1003.78
2018-04-29T03:42:59.676Z,1003.78
2018-04-29T03:43:59.650Z,1003.79
2018-04-29T03:44:59.626Z,1003.82
2018-04-29T03:45:59.614Z,1003.84
2018-04-29T03:46:59.587Z,1003.84
2018-04-29T03:47:59.566Z,1003.80
2018-04-29T03:48:59.550Z,1003.78
2018-04-29T03:49:59.561Z,1003.77
2018-04-29T03:50:59.510Z,1003.75
2018-04-29T03:51:59.487Z,1003.80
2018-04-29T03:52:59.465Z,1003.77
2018-04-29T03:53:59.446Z,1003.77
2018-04-29T03:54:59.426Z,1003.75
2018-04-29T03:55:59.476Z,1003.74
2018-04-29T03:56:59.384Z,1003.72
2018-04-29T03:57:59.368Z,1003.68
2018-04-29T03:58:59.341Z,1003.69
2018-04-29T03:59:59.323Z,1003.72
2018-04-29T04:00:59.302Z,1003.72
2018-04-29T04:01:59.285Z,1003.72
2018-04-29T04:02:59.264Z,1003.69
2018-04-29T04:03:59.269Z,1003.66
2018-04-29T04:04:59.223Z,1003.64
2018-04-29T04:05:59.202Z,1003.65
2018-04-29T04:06:59.183Z,1003.63
2018-04-29T04:07:59.160Z,1003.64
2018-04-29T04:08:59.141Z,1003.72
2018-04-29T04:09:59.123Z,1003.73
2018-04-29T04:10:59.095Z,1003.76
2018-04-29T04:11:59.076Z,1003.81
2018-04-29T04:12:59.057Z,1003.82
2018-04-29T04:13:59.037Z,1003.80
2018-04-29T04:14:59.027Z,1003.78
2018-04-29T04:15:58.996Z,1003.79
2018-04-29T04:16:58.975Z,1003.76
2018-04-29T04:17:58.960Z,1003.81
2018-04-29T04:18:58.933Z,1003.79
2018-04-29T04:19:58.914Z,1003.72
2018-04-29T04:20:58.899Z,1003.70
2018-04-29T04:21:58.871Z,1003.65
2018-04-29T04:22:58.852Z,1003.59
2018-04-29T04:23:58.832Z,1003.59
2018-04-29T04:24:58.809Z,1003.56
2018-04-29T04:25:58.791Z,1003.52
2018-04-29T04:26:58.768Z,1003.52
2018-04-29T04:27:58.756Z,1003.53
2018-04-29T04:28:58.726Z,1003.51
2018-04-29T04:29:58.707Z,1003.59
2018-04-29T04:30:58.686Z,1003.63
2018-04-29T04:31:58.677Z,1003.63
2018-04-29T04:32:58.650Z,1003.64
2018-04-29T04:33:58.623Z,1003.69
2018-04-29T04:34:58.606Z,1003.68
2018-04-29T04:35:58.583Z,1003.68
2018-04-29T04:36:58.564Z,1003.71
2018-04-29T04:37:58.546Z,1003.73
2018-04-29T04:38:58.524Z,1003.73
2018-04-29T04:39:58.504Z,1003.75
2018-04-29T04:40:58.482Z,1003.75
2018-04-29T04:41:58.461Z,1003.74
2018-04-29T04:42:58.439Z,1003.72
2018-04-29T04:43:58.420Z,1003.73
2018-04-29T04:44:58.397Z,1003.76
2018-04-29T04:45:58.376Z,1003.73
2018-04-29T04:46:58.356Z,1003.74
2018-04-29T04:47:58.336Z,1003.74
2018-04-29T04:48:58.314Z,1003.77
2018-04-29T04:49:58.294Z,1003.83
2018-04-29T04:50:58.273Z,1003.88
2018-04-29T04:51:58.269Z,1003.91
2018-04-29T04:52:58.232Z,1003.90
2018-04-29T04:53:58.211Z,1003.89
2018-04-29T04:54:58.192Z,1003.87
2018-04-29T04:55:58.170Z,1003.91
2018-04-29T04:56:58.155Z,1003.93
2018-04-29T04:57:58.132Z,1003.95
2018-04-29T04:58:58.111Z,1003.93
2018-04-29T04:59:58.090Z,1003.95
2018-04-29T05:00:58.074Z,1003.93
2018-04-29T05:01:58.050Z,1003.89
2018-04-29T05:02:58.027Z,1003.89
2018-04-29T05:03:58.042Z,1003.90
2018-04-29T05:04:57.986Z,1003.97
2018-04-29T05:05:57.967Z,1003.99
2018-04-29T05:06:57.944Z,1003.99
2018-04-29T05:07:57.924Z,1003.95
2018-04-29T05:08:57.907Z,1003.91
2018-04-29T05:09:57.884Z,1003.88
2018-04-29T05:10:57.862Z,1003.88
2018-04-29T05:11:57.857Z,1003.82
2018-04-29T05:12:57.821Z,1003.78
2018-04-29T05:13:57.798Z,1003.75
2018-04-29T05:14:57.780Z,1003.70
2018-04-29T05:15:57.775Z,1003.68
2018-04-29T05:16:57.739Z,1003.64
2018-04-29T05:17:57.717Z,1003.65
2018-04-29T05:18:57.696Z,1003.65
2018-04-29T05:19:57.680Z,1003.66
2018-04-29T05:20:57.659Z,1003.68
2018-04-29T05:21:57.642Z,1003.66
2018-04-29T05:22:57.636Z,1003.65
2018-04-29T05:23:57.595Z,1003.67
2018-04-29T05:24:57.574Z,1003.68
2018-04-29T05:25:57.554Z,1003.66
2018-04-29T05:26:57.535Z,1003.67
2018-04-29T05:27:57.512Z,1003.69
2018-04-29T05:28:57.493Z,1003.65
2018-04-29T05:29:57.470Z,1003.62
2018-04-29T05:30:57.448Z,1003.62
2018-04-29T05:31:57.429Z,1003.59
2018-04-29T05:32:57.410Z,1003.58
2018-04-29T05:33:57.390Z,1003.61
2018-04-29T05:34:57.368Z,1003.61
2018-04-29T05:35:57.359Z,1003.60
2018-04-29T05:36:57.327Z,1003.56
2018-04-29T05:37:57.307Z,1003.55
2018-04-29T05:38:57.294Z,1003.51
2018-04-29T05:39:57.266Z,1003.52
2018-04-29T05:40:57.246Z,1003.48
2018-04-29T05:41:57.230Z,1003.52
2018-04-29T05:42:57.205Z,1003.52
2018-04-29T05:43:57.189Z,1003.55
2018-04-29T05:44:57.190Z,1003.58
2018-04-29T05:45:57.143Z,1003.63
2018-04-29T05:46:57.125Z,1003.59
2018-04-29T05:47:57.106Z,1003.64
2018-04-29T05:48:57.084Z,1003.63
2018-04-29T05:49:57.087Z,1003.64
2018-04-29T05:50:57.049Z,1003.62
2018-04-29T05:51:57.026Z,1003.59
2018-04-29T05:52:57.008Z,1003.63
2018-04-29T05:53:56.986Z,1003.67
2018-04-29T05:54:56.966Z,1003.67
2018-04-29T05:55:56.944Z,1003.71
2018-04-29T05:56:56.924Z,1003.71
2018-04-29T05:57:56.903Z,1003.75
2018-04-29T05:58:56.885Z,1003.75
2018-04-29T05:59:56.868Z,1003.68
2018-04-29T06:00:56.846Z,1003.69
2018-04-29T06:01:56.826Z,1003.71
2018-04-29T06:02:56.804Z,1003.66
2018-04-29T06:03:56.811Z,1003.69
2018-04-29T06:04:56.770Z,1003.71
2018-04-29T06:05:56.745Z,1003.69
2018-04-29T06:06:56.727Z,1003.74
2018-04-29T06:07:56.733Z,1003.71
2018-04-29T06:08:56.703Z,1003.71
2018-04-29T06:09:56.664Z,1003.70
2018-04-29T06:10:56.647Z,1003.69
2018-04-29T06:11:56.627Z,1003.71
2018-04-29T06:12:56.619Z,1003.70
2018-04-29T06:13:56.669Z,1003.70
2018-04-29T06:14:56.570Z,1003.71
2018-04-29T06:15:56.557Z,1003.71
2018-04-29T06:16:56.545Z,1003.71
2018-04-29T06:17:56.509Z,1003.69
2018-04-29T06:18:56.490Z,1003.69
2018-04-29T06:19:56.474Z,1003.73
2018-04-29T06:20:56.450Z,1003.70
2018-04-29T06:21:56.430Z,1003.70
2018-04-29T06:22:56.413Z,1003.73
2018-04-29T06:23:56.406Z,1003.72
2018-04-29T06:24:56.380Z,1003.70
2018-04-29T06:25:56.389Z,1003.68
2018-04-29T06:26:56.336Z,1003.69
2018-04-29T06:27:56.330Z,1003.63
2018-04-29T06:28:56.300Z,1003.59
2018-04-29T06:29:56.311Z,1003.58
2018-04-29T06:30:56.306Z,1003.60
2018-04-29T06:31:56.320Z,1003.58
2018-04-29T06:32:56.223Z,1003.58
2018-04-29T06:33:56.199Z,1003.58
2018-04-29T06:34:56.185Z,1003.54
2018-04-29T06:35:56.164Z,1003.50
2018-04-29T06:36:56.159Z,1003.51
2018-04-29T06:37:56.748Z,1003.50
2018-04-29T06:38:56.180Z,1003.47
2018-04-29T06:39:56.147Z,1003.47
2018-04-29T06:40:56.072Z,1003.49
2018-04-29T06:41:56.048Z,1003.50
2018-04-29T06:42:56.054Z,1003.49
2018-04-29T06:43:56.014Z,1003.47
2018-04-29T06:44:55.989Z,1003.44
2018-04-29T06:45:55.981Z,1003.38
2018-04-29T06:46:55.977Z,1003.39
2018-04-29T06:47:55.943Z,1003.39
2018-04-29T06:48:55.923Z,1003.37
2018-04-29T06:49:55.897Z,1003.39
2018-04-29T06:50:55.882Z,1003.41
2018-04-29T06:51:55.878Z,1003.43
2018-04-29T06:52:55.859Z,1003.42
2018-04-29T06:53:55.822Z,1003.39
2018-04-29T06:54:55.809Z,1003.34
2018-04-29T06:55:55.810Z,1003.31
2018-04-29T06:56:55.765Z,1003.26
2018-04-29T06:57:55.750Z,1003.24
2018-04-29T06:58:55.748Z,1003.21
2018-04-29T06:59:55.733Z,1003.18
2018-04-29T07:00:55.688Z,1003.13
2018-04-29T07:01:55.671Z,1003.18
2018-04-29T07:02:55.667Z,1003.11
2018-04-29T07:03:55.636Z,1003.11
2018-04-29T07:04:55.617Z,1003.13
2018-04-29T07:05:55.597Z,1003.02
2018-04-29T07:06:55.581Z,1003.02
2018-04-29T07:07:55.559Z,1003.01
2018-04-29T07:08:55.541Z,1003.02
2018-04-29T07:09:55.524Z,1003.01
2018-04-29T07:10:55.506Z,1002.98
2018-04-29T07:11:55.494Z,1002.99
2018-04-29T07:12:55.467Z,1002.96
2018-04-29T07:13:55.448Z,1002.96
2018-04-29T07:14:55.466Z,1002.97
2018-04-29T07:15:55.426Z,1003.04
2018-04-29T07:16:55.406Z,1003.09
2018-04-29T07:17:55.377Z,1003.10
2018-04-29T07:18:55.362Z,1003.13
2018-04-29T07:19:55.414Z,1003.09
2018-04-29T07:20:55.324Z,1003.02
2018-04-29T07:21:55.305Z,1002.99
2018-04-29T07:22:55.287Z,1002.98
2018-04-29T07:23:55.283Z,1002.97
2018-04-29T07:24:55.258Z,1002.92
2018-04-29T07:25:55.233Z,1002.97
2018-04-29T07:26:55.218Z,1002.97
2018-04-29T07:27:55.204Z,1003.00
2018-04-29T07:28:55.243Z,1003.03
2018-04-29T07:29:55.164Z,1003.05
2018-04-29T07:30:55.206Z,1003.00
2018-04-29T07:31:55.132Z,1003.05
2018-04-29T07:32:55.111Z,1002.98
2018-04-29T07:33:55.092Z,1003.01
2018-04-29T07:34:55.096Z,1003.02
2018-04-29T07:35:55.067Z,1002.96
2018-04-29T07:36:55.053Z,1002.99
2018-04-29T07:37:55.026Z,1002.96
2018-04-29T07:38:55.006Z,1002.92
2018-04-29T07:39:55.040Z,1002.93
2018-04-29T07:40:54.970Z,1002.94
2018-04-29T07:41:54.963Z,1002.94
2018-04-29T07:42:54.944Z,1002.94
2018-04-29T07:43:54.932Z,1002.95
2018-04-29T07:44:54.937Z,1002.98
2018-04-29T07:45:54.899Z,1003.00
2018-04-29T07:46:54.880Z,1003.06
2018-04-29T07:47:54.880Z,1003.04
2018-04-29T07:48:54.837Z,1003.06
2018-04-29T07:49:54.826Z,1003.09
2018-04-29T07:50:54.801Z,1003.12
2018-04-29T07:51:54.806Z,1003.15
2018-04-29T07:52:54.767Z,1003.17
2018-04-29T07:53:54.752Z,1003.16
2018-04-29T07:54:54.737Z,1003.16
2018-04-29T07:55:54.710Z,1003.18
2018-04-29T07:56:54.698Z,1003.23
2018-04-29T07:57:54.686Z,1003.23
2018-04-29T07:58:54.661Z,1003.31
2018-04-29T07:59:54.642Z,1003.36
2018-04-29T08:00:54.689Z,1003.38
2018-04-29T08:01:54.610Z,1003.43
2018-04-29T08:02:54.601Z,1003.45
2018-04-29T08:03:54.801Z,1003.41
2018-04-29T08:04:54.572Z,1003.41
2018-04-29T08:05:54.549Z,1003.42
2018-04-29T08:06:54.522Z,1003.38
2018-04-29T08:07:54.502Z,1003.42
2018-04-29T08:08:54.484Z,1003.41
2018-04-29T08:09:54.521Z,1003.40
2018-04-29T08:10:56.056Z,1003.43
2018-04-29T08:11:54.495Z,1003.41
2018-04-29T08:12:54.441Z,1003.41
2018-04-29T08:13:54.406Z,1003.36
2018-04-29T08:14:54.441Z,1003.36
2018-04-29T08:15:54.419Z,1003.41
2018-04-29T08:16:54.392Z,1003.37
2018-04-29T08:17:54.408Z,1003.36
2018-04-29T08:18:54.361Z,1003.40
2018-04-29T08:19:54.332Z,1003.41
2018-04-29T08:20:54.278Z,1003.41
2018-04-29T08:21:54.261Z,1003.34
2018-04-29T08:22:54.249Z,1003.36
2018-04-29T08:23:54.262Z,1003.34
2018-04-29T08:24:54.204Z,1003.37
2018-04-29T08:25:54.189Z,1003.41
2018-04-29T08:26:54.172Z,1003.37
2018-04-29T08:27:54.151Z,1003.38
2018-04-29T08:28:54.195Z,1003.40
2018-04-29T08:29:54.121Z,1003.37
2018-04-29T08:30:54.102Z,1003.37
2018-04-29T08:31:54.089Z,1003.35
2018-04-29T08:32:54.063Z,1003.34
2018-04-29T08:33:54.105Z,1003.32
2018-04-29T08:34:54.036Z,1003.30
2018-04-29T08:35:54.011Z,1003.26
2018-04-29T08:36:53.995Z,1003.22
2018-04-29T08:37:54.008Z,1003.19
2018-04-29T08:38:53.962Z,1003.14
2018-04-29T08:39:53.946Z,1003.10
2018-04-29T08:40:53.931Z,1003.08
2018-04-29T08:41:54.023Z,1003.07
2018-04-29T08:42:53.938Z,1003.06
2018-04-29T08:43:53.872Z,1003.11
2018-04-29T08:44:53.856Z,1003.11
2018-04-29T08:45:53.837Z,1003.11
2018-04-29T08:46:53.819Z,1003.06
2018-04-29T08:47:53.801Z,1003.03
2018-04-29T08:48:53.793Z,1003.02
2018-04-29T08:49:53.776Z,1002.98
2018-04-29T08:50:53.767Z,1002.97
2018-04-29T08:51:53.732Z,1002.97
2018-04-29T08:52:53.751Z,1002.94
2018-04-29T08:53:53.697Z,1002.94
2018-04-29T08:54:53.803Z,1002.97
2018-04-29T08:55:53.676Z,1003.02
2018-04-29T08:56:53.649Z,1003.00
2018-04-29T08:57:53.629Z,1002.96
2018-04-29T08:58:53.611Z,1003.02
2018-04-29T08:59:53.598Z,1003.02
2018-04-29T09:00:53.576Z,1003.01
2018-04-29T09:01:53.557Z,1003.02
2018-04-29T09:02:53.540Z,1003.02
2018-04-29T09:03:53.559Z,1003.00
2018-04-29T09:04:53.506Z,1002.95
2018-04-29T09:05:53.488Z,1002.88
2018-04-29T09:06:53.473Z,1002.79
2018-04-29T09:07:53.459Z,1002.78
2018-04-29T09:08:53.437Z,1002.80
2018-04-29T09:09:53.423Z,1002.77
2018-04-29T09:10:53.404Z,1002.85
2018-04-29T09:11:53.390Z,1002.87
2018-04-29T09:12:53.375Z,1002.86
2018-04-29T09:13:53.353Z,1002.87
2018-04-29T09:14:53.338Z,1002.80
2018-04-29T09:15:53.323Z,1002.76
2018-04-29T09:16:53.307Z,1002.77
2018-04-29T09:17:53.290Z,1002.74
2018-04-29T09:18:53.271Z,1002.73
2018-04-29T09:19:53.257Z,1002.74
2018-04-29T09:20:53.240Z,1002.71
2018-04-29T09:21:54.084Z,1002.68
2018-04-29T09:22:53.217Z,1002.74
2018-04-29T09:23:54.241Z,1002.75
2018-04-29T09:24:54.071Z,1002.74
2018-04-29T09:25:53.151Z,1002.72
2018-04-29T09:26:53.136Z,1002.72
2018-04-29T09:27:53.117Z,1002.67
2018-04-29T09:28:53.106Z,1002.68
2018-04-29T09:29:53.084Z,1002.70
2018-04-29T09:30:53.068Z,1002.72
2018-04-29T09:31:53.053Z,1002.77
2018-04-29T09:32:53.091Z,1002.80
2018-04-29T09:33:54.590Z,1002.84
2018-04-29T09:34:53.002Z,1002.88
2018-04-29T09:35:52.987Z,1002.88
2018-04-29T09:36:53.022Z,1002.94
2018-04-29T09:37:52.992Z,1002.92
2018-04-29T09:38:52.934Z,1002.92
2018-04-29T09:39:52.921Z,1002.88
2018-04-29T09:40:52.940Z,1002.94
2018-04-29T09:41:52.889Z,1002.92
2018-04-29T09:42:52.867Z,1002.96
2018-04-29T09:43:52.897Z,1002.99
2018-04-29T09:44:52.834Z,1002.99
2018-04-29T09:45:52.882Z,1002.99
2018-04-29T09:46:52.808Z,1003.05
2018-04-29T09:47:52.785Z,1003.02
2018-04-29T09:48:52.765Z,1003.05
2018-04-29T09:49:52.749Z,1003.08
2018-04-29T09:50:52.729Z,1003.10
2018-04-29T09:51:52.715Z,1003.07
2018-04-29T09:52:52.696Z,1002.96
2018-04-29T09:53:52.743Z,1002.68
2018-04-29T09:54:52.675Z,1002.14
2018-04-29T09:55:52.665Z,1001.96
2018-04-29T09:56:52.629Z,1002.07
2018-04-29T09:57:52.611Z,1002.40
2018-04-29T09:58:52.595Z,1002.65
2018-04-29T09:59:52.585Z,1002.79
2018-04-29T10:00:52.579Z,1002.79
2018-04-29T10:01:52.548Z,1002.73
2018-04-29T10:02:52.532Z,1002.70
2018-04-29T10:03:52.515Z,1002.68
2018-04-29T10:04:52.493Z,1002.73
2018-04-29T10:05:52.493Z,1002.68
2018-04-29T10:06:52.475Z,1002.70
2018-04-29T10:07:52.657Z,1002.65
2018-04-29T10:08:52.422Z,1002.68
2018-04-29T10:09:52.412Z,1002.68
2018-04-29T10:10:52.394Z,1002.65
2018-04-29T10:11:53.613Z,1002.63
2018-04-29T10:12:52.437Z,1002.65
2018-04-29T10:13:52.338Z,1002.61
2018-04-29T10:14:52.321Z,1002.63
2018-04-29T10:15:53.067Z,1002.62
2018-04-29T10:16:52.290Z,1002.60
2018-04-29T10:17:52.269Z,1002.58
2018-04-29T10:18:52.266Z,1002.54
2018-04-29T10:19:52.242Z,1002.55
2018-04-29T10:20:52.216Z,1002.47
2018-04-29T10:21:52.206Z,1002.44
2018-04-29T10:22:52.189Z,1002.46
2018-04-29T10:23:52.171Z,1002.42
2018-04-29T10:24:52.160Z,1002.38
2018-04-29T10:25:52.233Z,1002.37
2018-04-29T10:26:52.120Z,1002.38
2018-04-29T10:27:52.102Z,1002.44
2018-04-29T10:28:52.086Z,1002.42
2018-04-29T10:29:52.074Z,1002.38
2018-04-29T10:30:52.206Z,1002.39
2018-04-29T10:31:52.037Z,1002.44
2018-04-29T10:32:52.131Z,1002.41
2018-04-29T10:33:52.056Z,1002.40
2018-04-29T10:34:52.050Z,1002.38
2018-04-29T10:35:51.969Z,1002.38
2018-04-29T10:36:51.975Z,1002.37
2018-04-29T10:37:51.934Z,1002.33
2018-04-29T10:38:51.921Z,1002.37
2018-04-29T10:39:51.903Z,1002.26
2018-04-29T10:40:51.891Z,1002.25
2018-04-29T10:41:51.890Z,1002.37
2018-04-29T10:42:51.854Z,1002.35
2018-04-29T10:43:51.844Z,1002.30
2018-04-29T10:44:51.822Z,1002.42
2018-04-29T10:45:51.864Z,1002.15
2018-04-29T10:46:51.794Z,1002.14
2018-04-29T10:47:51.810Z,1002.19
2018-04-29T10:48:51.777Z,1002.13
2018-04-29T10:49:51.749Z,1002.14
2018-04-29T10:50:51.767Z,1002.21
2018-04-29T10:51:51.722Z,1002.16
2018-04-29T10:52:51.702Z,1002.16
2018-04-29T10:53:51.691Z,1002.10
2018-04-29T10:54:51.671Z,1002.07
2018-04-29T10:55:51.668Z,1002.00
2018-04-29T10:56:51.641Z,1001.98
2018-04-29T10:57:51.687Z,1001.92
2018-04-29T10:58:51.643Z,1001.94
2018-04-29T10:59:51.603Z,1002.00
2018-04-29T11:00:51.587Z,1001.87
2018-04-29T11:01:51.607Z,1001.83
2018-04-29T11:02:51.576Z,1001.82
2018-04-29T11:03:51.548Z,1001.79
2018-04-29T11:04:51.523Z,1001.75
2018-04-29T11:05:51.512Z,1002.01
2018-04-29T11:06:51.498Z,1001.86
2018-04-29T11:07:51.487Z,1001.99
2018-04-29T11:08:51.464Z,1002.00
2018-04-29T11:09:51.450Z,1002.01
2018-04-29T11:10:51.459Z,1001.96
2018-04-29T11:11:51.474Z,1001.83
2018-04-29T11:12:51.407Z,1001.88
2018-04-29T11:13:51.447Z,1001.93
2018-04-29T11:14:51.396Z,1002.02
2018-04-29T11:15:51.373Z,1001.97
2018-04-29T11:16:51.363Z,1001.65
2018-04-29T11:17:51.351Z,1001.57
2018-04-29T11:18:51.341Z,1001.48
2018-04-29T11:19:51.333Z,1001.49
2018-04-29T11:20:51.325Z,1001.56
2018-04-29T11:21:51.319Z,1001.59
2018-04-29T11:22:51.299Z,1001.55
2018-04-29T11:23:51.302Z,1001.46
2018-04-29T11:24:51.281Z,1001.44
2018-04-29T11:25:51.268Z,1001.42
2018-04-29T11:26:51.259Z,1001.38
2018-04-29T11:27:51.259Z,1001.40
2018-04-29T11:28:51.234Z,1001.64
2018-04-29T11:29:51.250Z,1001.58
2018-04-29T11:30:51.212Z,1001.53
2018-04-29T11:31:51.209Z,1001.32
2018-04-29T11:32:51.195Z,1001.27
2018-04-29T11:33:51.272Z,1001.23
2018-04-29T11:34:51.172Z,1001.23
2018-04-29T11:35:51.161Z,1001.18
2018-04-29T11:36:51.154Z,1001.16
2018-04-29T11:37:51.140Z,1001.14
2018-04-29T11:38:51.132Z,1001.03
2018-04-29T11:39:51.119Z,1001.00
2018-04-29T11:40:51.112Z,1000.94
2018-04-29T11:41:51.100Z,1000.97
2018-04-29T11:42:51.163Z,1001.00
2018-04-29T11:43:51.082Z,1000.92
2018-04-29T11:44:51.072Z,1000.92
2018-04-29T11:45:51.068Z,1000.90
2018-04-29T11:46:51.045Z,1000.95
2018-04-29T11:47:51.036Z,1000.95
2018-04-29T11:48:51.029Z,1000.89
2018-04-29T11:49:51.017Z,1000.87
2018-04-29T11:50:51.015Z,1000.82
2018-04-29T11:51:50.990Z,1000.83
2018-04-29T11:52:50.978Z,1000.83
2018-04-29T11:53:50.969Z,1000.77
2018-04-29T11:54:50.961Z,1000.69
2018-04-29T11:55:50.951Z,1000.64
2018-04-29T11:56:50.936Z,1000.61
2018-04-29T11:57:50.927Z,1000.58
2018-04-29T11:58:50.915Z,1000.65
2018-04-29T11:59:50.904Z,1000.67
2018-04-29T12:00:50.892Z,1000.72
2018-04-29T12:01:50.946Z,1000.78
2018-04-29T12:02:50.870Z,1000.79
2018-04-29T12:03:50.861Z,1000.79
2018-04-29T12:04:50.849Z,1000.78